createdAt,value
2018-02-14T00:00:14.841Z,1.10
2018-02-14T00:02:43.065Z,1.10
2018-02-14T00:05:10.516Z,1.00
2018-02-14T00:07:38.006Z,1.00
2018-02-14T00:10:05.461Z,1.00
2018-02-14T00:12:32.988Z,1.00
2018-02-14T00:15:00.452Z,1.00
2018-02-14T00:17:27.944Z,1.00
2018-02-14T00:19:55.503Z,1.00
2018-02-14T00:22:22.963Z,1.00
2018-02-14T00:24:51.235Z,1.00
2018-02-14T00:27:18.788Z,0.90
2018-02-14T00:29:46.260Z,1.00
2018-02-14T00:32:13.719Z,1.00
2018-02-14T00:34:41.976Z,1.00
2018-02-14T00:37:09.440Z,0.90
2018-02-14T00:39:37.009Z,1.00
2018-02-14T00:42:04.451Z,0.90
2018-02-14T00:44:31.999Z,0.90
2018-02-14T00:46:59.455Z,0.80
2018-02-14T00:49:27.024Z,0.80
2018-02-14T00:51:54.480Z,0.80
2018-02-14T00:54:22.040Z,0.70
2018-02-14T00:56:49.500Z,0.70
2018-02-14T00:59:17.058Z,0.70
2018-02-14T01:01:44.616Z,0.70
2018-02-14T01:04:12.293Z,0.70
2018-02-14T01:06:40.523Z,0.70
2018-02-14T01:09:08.011Z,0.60
2018-02-14T01:11:35.950Z,0.70
2018-02-14T01:14:03.434Z,0.70
2018-02-14T01:16:30.896Z,0.70
2018-02-14T01:18:58.356Z,0.60
2018-02-14T01:21:26.600Z,0.60
2018-02-14T01:23:54.089Z,0.50
2018-02-14T01:26:21.647Z,0.50
2018-02-14T01:28:49.111Z,0.50
2018-02-14T01:31:17.351Z,0.50
2018-02-14T01:33:44.814Z,0.40
2018-02-14T01:36:12.297Z,0.50
2018-02-14T01:38:40.556Z,0.50
2018-02-14T01:41:08.033Z,0.50
2018-02-14T01:43:36.256Z,0.60
2018-02-14T01:46:03.739Z,0.50
2018-02-14T01:48:31.245Z,0.60
2018-02-14T01:50:58.765Z,0.60
2018-02-14T01:53:26.235Z,0.50
2018-02-14T01:55:54.460Z,0.50
2018-02-14T01:58:21.930Z,0.50
2018-02-14T02:00:49.402Z,0.50
2018-02-14T02:03:16.967Z,0.40
2018-02-14T02:05:44.439Z,0.40
2018-02-14T02:08:11.909Z,0.40
2018-02-14T02:10:40.160Z,0.40
2018-02-14T02:13:07.703Z,0.30
2018-02-14T02:15:35.167Z,0.40
2018-02-14T02:18:03.428Z,0.40
2018-02-14T02:20:34.854Z,0.30
2018-02-14T02:23:03.166Z,0.40
2018-02-14T02:25:30.623Z,0.30
2018-02-14T02:27:58.242Z,0.40
2018-02-14T02:30:25.722Z,0.30
2018-02-14T02:32:53.180Z,0.30
2018-02-14T02:35:20.658Z,0.30
2018-02-14T02:37:48.115Z,0.30
2018-02-14T02:40:27.345Z,0.30
2018-02-14T02:42:54.925Z,0.30
2018-02-14T02:45:23.178Z,0.30
2018-02-14T02:47:50.749Z,0.20
2018-02-14T02:50:18.226Z,0.30
2018-02-14T02:52:46.452Z,0.30
2018-02-14T02:55:14.034Z,0.20
2018-02-14T02:57:41.647Z,0.20
2018-02-14T03:00:09.109Z,0.20
2018-02-14T03:02:36.610Z,0.20
2018-02-14T03:05:04.839Z,0.20
2018-02-14T03:07:32.345Z,0.10
2018-02-14T03:09:59.893Z,0.10
2018-02-14T03:12:27.377Z,0.10
2018-02-14T03:14:55.600Z,0.10
2018-02-14T03:17:23.092Z,0.10
2018-02-14T03:19:50.561Z,0.10
2018-02-14T03:22:18.953Z,0.10
2018-02-14T03:24:47.291Z,0.10
2018-02-14T03:27:14.794Z,0.00
2018-02-14T03:29:42.326Z,0.10
2018-02-14T03:32:09.801Z,0.10
2018-02-14T03:34:38.048Z,0.10
2018-02-14T03:37:05.617Z,0.00
2018-02-14T03:39:33.177Z,0.00
2018-02-14T03:42:00.676Z,0.00
2018-02-14T03:44:28.144Z,0.00
2018-02-14T03:46:55.613Z,0.00
2018-02-14T03:49:23.108Z,0.00
2018-02-14T03:51:50.577Z,0.00
2018-02-14T03:54:18.880Z,-0.10
2018-02-14T03:56:46.350Z,-0.20
2018-02-14T03:59:13.855Z,-0.10
2018-02-14T04:01:41.325Z,-0.10
2018-02-14T04:04:09.644Z,-0.10
2018-02-14T04:06:37.117Z,-0.20
2018-02-14T04:09:04.597Z,-0.10
2018-02-14T04:11:32.060Z,-0.10
2018-02-14T04:14:00.288Z,-0.10
2018-02-14T04:16:27.761Z,-0.20
2018-02-14T04:18:55.224Z,-0.10
2018-02-14T04:21:22.801Z,-0.10
2018-02-14T04:23:50.278Z,-0.20
2018-02-14T04:26:18.513Z,-0.20
2018-02-14T04:28:45.985Z,-0.20
2018-02-14T04:31:13.466Z,-0.20
2018-02-14T04:33:41.692Z,-0.20
2018-02-14T04:36:09.193Z,-0.20
2018-02-14T04:38:37.450Z,-0.20
2018-02-14T04:41:04.999Z,-0.30
2018-02-14T04:43:33.242Z,-0.20
2018-02-14T04:46:00.713Z,-0.20
2018-02-14T04:48:28.189Z,-0.20
2018-02-14T04:50:55.647Z,-0.20
2018-02-14T04:53:23.125Z,-0.20
2018-02-14T04:55:51.358Z,-0.20
2018-02-14T04:58:18.829Z,-0.30
2018-02-14T05:00:46.400Z,-0.30
2018-02-14T05:03:13.961Z,-0.30
2018-02-14T05:05:41.429Z,-0.30
2018-02-14T05:08:09.672Z,-0.30
2018-02-14T05:10:37.141Z,-0.40
2018-02-14T05:13:06.146Z,-0.40
2018-02-14T05:15:33.704Z,-0.40
2018-02-14T05:18:01.256Z,-0.30
2018-02-14T05:20:29.513Z,-0.40
2018-02-14T05:22:56.977Z,-0.40
2018-02-14T05:25:24.572Z,-0.40
2018-02-14T05:27:52.809Z,-0.40
2018-02-14T05:30:20.380Z,-0.50
2018-02-14T05:32:47.939Z,-0.40
2018-02-14T05:35:15.453Z,-0.40
2018-02-14T05:37:42.927Z,-0.50
2018-02-14T05:40:10.420Z,-0.50
2018-02-14T05:42:37.993Z,-0.50
2018-02-14T05:45:06.235Z,-0.40
2018-02-14T05:47:33.737Z,-0.50
2018-02-14T05:50:02.002Z,-0.40
2018-02-14T05:52:30.233Z,-0.40
2018-02-14T05:54:57.741Z,-0.40
2018-02-14T05:57:25.244Z,-0.40
2018-02-14T05:59:53.216Z,-0.40
2018-02-14T06:02:20.705Z,-0.50
2018-02-14T06:04:48.170Z,-0.50
2018-02-14T06:07:16.519Z,-0.50
2018-02-14T06:09:44.093Z,-0.50
2018-02-14T06:12:12.373Z,-0.50
2018-02-14T06:14:39.839Z,-0.60
2018-02-14T06:17:08.072Z,-0.50
2018-02-14T06:19:35.547Z,-0.50
2018-02-14T06:22:03.128Z,-0.50
2018-02-14T06:24:31.367Z,-0.40
2018-02-14T06:26:58.922Z,-0.50
2018-02-14T06:29:26.412Z,-0.40
2018-02-14T06:31:53.881Z,-0.40
2018-02-14T06:34:22.141Z,-0.40
2018-02-14T06:36:49.620Z,-0.40
2018-02-14T06:39:17.852Z,-0.40
2018-02-14T06:41:45.319Z,-0.40
2018-02-14T06:44:12.889Z,-0.30
2018-02-14T06:46:40.449Z,-0.30
2018-02-14T06:49:08.012Z,-0.30
2018-02-14T06:51:35.493Z,-0.30
2018-02-14T06:54:03.721Z,-0.30
2018-02-14T06:56:35.394Z,-0.30
2018-02-14T06:59:04.488Z,-0.30
2018-02-14T07:01:31.961Z,-0.30
2018-02-14T07:04:00.221Z,-0.10
2018-02-14T07:06:27.745Z,-0.20
2018-02-14T07:08:55.470Z,-0.10
2018-02-14T07:11:22.927Z,0.00
2018-02-14T07:13:50.497Z,0.00
2018-02-14T07:16:18.117Z,0.00
2018-02-14T07:21:20.381Z,0.20
2018-02-14T07:23:47.861Z,0.10
2018-02-14T07:26:16.112Z,0.30
2018-02-14T07:28:43.580Z,0.20
2018-02-14T07:31:11.057Z,0.30
2018-02-14T07:33:38.515Z,0.30
2018-02-14T07:36:06.067Z,0.40
2018-02-14T07:38:33.657Z,0.50
2018-02-14T07:41:01.140Z,0.60
2018-02-14T07:43:28.595Z,0.70
2018-02-14T07:45:56.069Z,0.80
2018-02-14T07:48:23.538Z,0.80
2018-02-14T07:50:51.029Z,0.90
2018-02-14T07:53:19.390Z,1.20
2018-02-14T07:55:46.889Z,1.10
2018-02-14T07:58:14.365Z,1.40
2018-02-14T08:00:41.954Z,1.50
2018-02-14T08:03:09.437Z,1.70
2018-02-14T08:05:37.667Z,2.20
2018-02-14T08:08:05.150Z,2.20
2018-02-14T08:10:32.616Z,2.60
2018-02-14T08:13:00.884Z,2.70
2018-02-14T08:15:28.352Z,2.70
2018-02-14T08:17:56.598Z,2.50
2018-02-14T08:20:24.055Z,2.40
2018-02-14T08:22:51.529Z,2.40
2018-02-14T08:25:18.997Z,2.60
2018-02-14T08:27:47.359Z,2.90
2018-02-14T08:30:14.821Z,2.80
2018-02-14T08:32:42.378Z,3.00
2018-02-14T08:35:11.063Z,3.10
2018-02-14T08:37:39.301Z,2.90
2018-02-14T08:40:06.769Z,2.80
2018-02-14T08:42:34.234Z,2.90
2018-02-14T08:45:01.691Z,2.80
2018-02-14T08:47:30.008Z,2.80
2018-02-14T08:49:58.236Z,3.30
2018-02-14T08:52:25.871Z,3.20
2018-02-14T08:54:53.341Z,3.90
2018-02-14T08:57:20.801Z,4.30
2018-02-14T08:59:48.398Z,4.10
2018-02-14T09:02:15.913Z,4.10
2018-02-14T09:04:43.459Z,4.70
2018-02-14T09:07:10.957Z,5.20
2018-02-14T09:09:38.520Z,5.30
2018-02-14T09:12:05.980Z,5.40
2018-02-14T09:14:33.535Z,5.60
2018-02-14T09:17:01.267Z,5.70
2018-02-14T09:19:28.864Z,5.60
2018-02-14T09:21:56.328Z,5.60
2018-02-14T09:24:23.981Z,5.60
2018-02-14T09:26:51.540Z,5.50
2018-02-14T09:29:19.011Z,5.40
2018-02-14T09:31:47.245Z,5.20
2018-02-14T09:34:14.705Z,5.10
2018-02-14T09:36:42.184Z,5.40
2018-02-14T09:39:09.652Z,5.80
2018-02-14T09:41:37.910Z,5.90
2018-02-14T09:44:05.483Z,5.90
2018-02-14T09:46:32.944Z,5.80
2018-02-14T09:49:00.553Z,5.60
2018-02-14T09:51:28.013Z,5.70
2018-02-14T09:53:55.607Z,5.80
2018-02-14T09:56:23.076Z,6.20
2018-02-14T09:58:50.551Z,6.40
2018-02-14T10:01:18.059Z,6.70
2018-02-14T10:03:45.489Z,7.00
2018-02-14T10:06:12.948Z,6.70
2018-02-14T10:08:40.451Z,6.40
2018-02-14T10:11:08.004Z,6.30
2018-02-14T10:13:35.498Z,6.60
2018-02-14T10:16:03.721Z,7.10
2018-02-14T10:18:31.181Z,7.10
2018-02-14T10:20:58.680Z,7.20
2018-02-14T10:23:26.933Z,8.20
2018-02-14T10:25:54.413Z,8.20
2018-02-14T10:28:21.921Z,8.70
2018-02-14T10:30:49.380Z,9.10
2018-02-14T10:33:16.868Z,9.70
2018-02-14T10:35:44.333Z,9.90
2018-02-14T10:38:12.661Z,10.10
2018-02-14T10:40:40.206Z,10.00
2018-02-14T10:43:07.663Z,10.40
2018-02-14T10:45:35.134Z,10.50
2018-02-14T10:48:02.632Z,10.40
2018-02-14T10:50:30.103Z,10.50
2018-02-14T10:52:58.341Z,10.30
2018-02-14T10:55:25.812Z,10.20
2018-02-14T10:57:53.296Z,10.00
2018-02-14T11:00:27.245Z,11.00
2018-02-14T11:03:00.429Z,11.00
2018-02-14T11:05:32.800Z,12.30
2018-02-14T11:08:00.272Z,12.20
2018-02-14T11:10:27.854Z,12.00
2018-02-14T11:12:55.342Z,11.70
2018-02-14T11:15:22.806Z,11.50
2018-02-14T11:17:50.331Z,11.60
2018-02-14T11:20:17.787Z,12.00
2018-02-14T11:22:45.280Z,12.00
2018-02-14T11:25:12.750Z,11.70
2018-02-14T11:27:40.217Z,11.00
2018-02-14T11:30:07.689Z,11.00
2018-02-14T11:32:35.273Z,11.30
2018-02-14T11:35:02.751Z,11.80
2018-02-14T11:37:30.995Z,13.30
2018-02-14T11:39:58.667Z,13.20
2018-02-14T11:42:26.231Z,14.10
2018-02-14T11:44:53.707Z,14.60
2018-02-14T11:47:21.980Z,15.50
2018-02-14T11:49:49.431Z,15.40
2018-02-14T11:52:17.664Z,17.60
2018-02-14T11:54:45.175Z,17.50
2018-02-14T11:57:13.407Z,18.70
2018-02-14T11:59:40.877Z,18.60
2018-02-14T12:02:08.366Z,19.00
2018-02-14T12:04:36.403Z,19.70
2018-02-14T12:07:03.877Z,20.60
2018-02-14T12:09:32.116Z,21.20
2018-02-14T12:11:59.592Z,21.10
2018-02-14T12:14:27.210Z,20.20
2018-02-14T12:16:54.701Z,20.30
2018-02-14T12:19:22.278Z,21.10
2018-02-14T12:21:50.507Z,22.00
2018-02-14T12:24:17.981Z,21.90
2018-02-14T12:26:45.468Z,22.10
2018-02-14T12:29:13.019Z,22.00
2018-02-14T12:31:40.593Z,21.10
2018-02-14T12:34:08.856Z,20.10
2018-02-14T12:36:36.568Z,20.10
2018-02-14T12:39:04.037Z,19.80
2018-02-14T12:41:31.522Z,19.20
2018-02-14T12:43:59.097Z,18.70
2018-02-14T12:46:26.649Z,17.60
2018-02-14T12:48:54.146Z,17.10
2018-02-14T12:51:21.672Z,16.60
2018-02-14T12:53:50.064Z,15.60
2018-02-14T12:56:18.415Z,15.20
2018-02-14T12:58:45.991Z,15.10
2018-02-14T13:01:14.226Z,14.80
2018-02-14T13:03:41.694Z,14.70
2018-02-14T13:06:09.270Z,15.00
2018-02-14T13:08:36.733Z,15.20
2018-02-14T13:11:04.236Z,15.40
2018-02-14T13:13:31.741Z,15.60
2018-02-14T13:16:00.721Z,14.50
2018-02-14T13:18:28.197Z,14.50
2018-02-14T13:20:55.753Z,13.20
2018-02-14T13:23:23.233Z,12.80
2018-02-14T13:25:51.589Z,12.60
2018-02-14T13:28:19.155Z,12.50
2018-02-14T13:30:47.438Z,12.90
2018-02-14T13:33:15.684Z,12.20
2018-02-14T13:35:43.249Z,12.10
2018-02-14T13:38:10.709Z,11.40
2018-02-14T13:40:38.184Z,10.20
2018-02-14T13:43:06.425Z,8.60
2018-02-14T13:45:33.909Z,8.50
2018-02-14T13:48:01.381Z,8.80
2018-02-14T13:50:29.625Z,8.90
2018-02-14T13:52:57.204Z,8.80
2018-02-14T13:55:24.709Z,9.00
2018-02-14T13:57:52.191Z,8.90
2018-02-14T14:00:19.664Z,9.00
2018-02-14T14:02:47.225Z,8.80
2018-02-14T14:05:14.783Z,8.70
2018-02-14T14:07:43.018Z,8.50
2018-02-14T14:10:10.517Z,8.40
2018-02-14T14:12:38.072Z,8.60
2018-02-14T14:15:05.645Z,8.70
2018-02-14T14:17:33.890Z,8.80
2018-02-14T14:20:01.429Z,8.70
2018-02-14T14:22:28.926Z,8.80
2018-02-14T14:24:56.394Z,9.10
2018-02-14T14:27:24.664Z,9.20
2018-02-14T14:29:52.325Z,9.20
2018-02-14T14:32:19.973Z,9.00
2018-02-14T14:34:47.543Z,8.90
2018-02-14T14:37:15.129Z,8.80
2018-02-14T14:39:43.427Z,8.50
2018-02-14T14:42:10.943Z,8.40
2018-02-14T14:44:38.405Z,8.40
2018-02-14T14:47:06.629Z,8.00
2018-02-14T14:49:34.211Z,8.00
2018-02-14T14:52:01.664Z,7.80
2018-02-14T14:54:29.229Z,7.70
2018-02-14T14:56:56.731Z,7.70
2018-02-14T14:59:24.268Z,7.70
2018-02-14T15:01:51.729Z,7.70
2018-02-14T15:04:20.044Z,7.60
2018-02-14T15:06:47.508Z,7.50
2018-02-14T15:09:15.003Z,7.50
2018-02-14T15:11:42.481Z,7.30
2018-02-14T15:14:10.761Z,7.20
2018-02-14T15:16:39.013Z,7.20
2018-02-14T15:19:06.493Z,7.10
2018-02-14T15:21:34.720Z,7.10
2018-02-14T15:24:02.211Z,7.00
2018-02-14T15:26:29.663Z,6.90
2018-02-14T15:28:57.216Z,6.90
2018-02-14T15:31:26.211Z,6.80
2018-02-14T15:33:53.676Z,6.80
2018-02-14T15:36:21.908Z,6.90
2018-02-14T15:38:49.380Z,6.90
2018-02-14T15:41:17.053Z,7.10
2018-02-14T15:43:44.524Z,7.40
2018-02-14T15:46:12.840Z,8.00
2018-02-14T15:48:40.305Z,7.90
2018-02-14T15:51:07.799Z,8.20
2018-02-14T15:53:35.325Z,8.10
2018-02-14T15:56:02.833Z,7.90
2018-02-14T15:58:31.103Z,7.30
2018-02-14T16:00:58.565Z,7.20
2018-02-14T16:03:26.815Z,6.70
2018-02-14T16:05:54.396Z,6.60
2018-02-14T16:08:22.657Z,6.30
2018-02-14T16:10:50.124Z,6.30
2018-02-14T16:13:17.850Z,6.10
2018-02-14T16:15:45.339Z,6.00
2018-02-14T16:18:13.726Z,5.90
2018-02-14T16:20:41.957Z,5.70
2018-02-14T16:23:09.468Z,5.60
2018-02-14T16:25:37.717Z,5.50
2018-02-14T16:28:05.188Z,5.40
2018-02-14T16:30:32.711Z,5.30
2018-02-14T16:33:00.178Z,5.20
2018-02-14T16:35:27.676Z,5.10
2018-02-14T16:37:55.919Z,4.90
2018-02-14T16:40:23.406Z,4.80
2018-02-14T16:45:25.577Z,4.60
2018-02-14T16:47:53.158Z,4.50
2018-02-14T16:50:20.645Z,4.50
2018-02-14T16:52:48.108Z,4.50
2018-02-14T16:55:15.608Z,4.40
2018-02-14T16:57:43.858Z,4.10
2018-02-14T17:00:11.338Z,4.10
2018-02-14T17:02:39.571Z,4.00
2018-02-14T17:05:07.086Z,3.90
2018-02-14T17:07:35.339Z,4.00
2018-02-14T17:10:02.816Z,3.90
2018-02-14T17:12:31.078Z,4.10
2018-02-14T17:14:58.558Z,4.00
2018-02-14T17:17:26.819Z,4.00
2018-02-14T17:19:54.298Z,3.90
2018-02-14T17:22:21.819Z,4.10
2018-02-14T17:24:49.300Z,4.10
2018-02-14T17:27:17.585Z,4.00
2018-02-14T17:29:45.079Z,3.90
2018-02-14T17:32:12.561Z,4.00
2018-02-14T17:34:41.609Z,3.90
2018-02-14T17:37:09.816Z,3.90
2018-02-14T17:39:37.371Z,3.80
2018-02-14T17:42:04.869Z,3.80
2018-02-14T17:44:32.351Z,3.80
2018-02-14T17:46:59.830Z,3.60
2018-02-14T17:49:27.323Z,3.50
2018-02-14T17:51:54.844Z,3.50
2018-02-14T17:54:22.321Z,3.50
2018-02-14T17:56:49.801Z,3.40
2018-02-14T17:59:17.302Z,3.40
2018-02-14T18:01:44.790Z,3.40
2018-02-14T18:04:12.259Z,3.30
2018-02-14T18:06:39.734Z,3.20
2018-02-14T18:09:07.219Z,3.20
2018-02-14T18:11:34.697Z,3.20
2018-02-14T18:14:02.186Z,3.10
2018-02-14T18:16:29.657Z,3.10
2018-02-14T18:18:57.139Z,3.10
2018-02-14T18:21:25.386Z,3.20
2018-02-14T18:23:52.881Z,3.20
2018-02-14T18:26:20.390Z,3.20
2018-02-14T18:28:47.912Z,3.10
2018-02-14T18:31:15.381Z,3.10
2018-02-14T18:33:42.863Z,3.00
2018-02-14T18:36:10.352Z,3.00
2018-02-14T18:38:38.602Z,2.90
2018-02-14T18:41:06.068Z,2.80
2018-02-14T18:43:34.338Z,2.90
2018-02-14T18:46:02.583Z,2.90
2018-02-14T18:48:30.077Z,2.80
2018-02-14T18:50:58.312Z,2.80
2018-02-14T18:53:25.800Z,2.80
2018-02-14T18:55:53.282Z,2.70
2018-02-14T18:58:20.799Z,2.70
2018-02-14T19:00:48.290Z,2.60
2018-02-14T19:03:16.558Z,2.70
2018-02-14T19:05:44.072Z,2.60
2018-02-14T19:08:11.574Z,2.70
2018-02-14T19:10:39.072Z,2.70
2018-02-14T19:13:06.545Z,2.50
2018-02-14T19:15:34.041Z,2.40
2018-02-14T19:18:01.521Z,2.30
2018-02-14T19:20:28.986Z,2.30
2018-02-14T19:22:56.464Z,2.20
2018-02-14T19:25:23.937Z,2.20
2018-02-14T19:27:51.414Z,2.20
2018-02-14T19:30:18.938Z,2.20
2018-02-14T19:32:46.414Z,2.20
2018-02-14T19:35:13.904Z,2.20
2018-02-14T19:37:42.282Z,2.10
2018-02-14T19:40:10.521Z,2.10
2018-02-14T19:42:38.067Z,2.00
2018-02-14T19:45:05.537Z,2.10
2018-02-14T19:47:33.021Z,2.00
2018-02-14T19:50:01.387Z,2.00
2018-02-14T19:52:28.853Z,2.00
2018-02-14T19:54:57.072Z,1.90
2018-02-14T19:57:24.556Z,1.80
2018-02-14T19:59:52.933Z,1.90
2018-02-14T20:02:20.418Z,1.90
2018-02-14T20:04:48.706Z,1.60
2018-02-14T20:07:16.957Z,1.50
2018-02-14T20:09:44.433Z,1.50
2018-02-14T20:12:11.943Z,1.40
2018-02-14T20:14:39.401Z,1.40
2018-02-14T20:17:06.872Z,1.30
2018-02-14T20:19:34.362Z,1.30
2018-02-14T20:22:02.521Z,1.20
2018-02-14T20:24:29.985Z,1.30
2018-02-14T20:26:57.451Z,1.20
2018-02-14T20:29:25.732Z,1.00
2018-02-14T20:31:53.972Z,0.90
2018-02-14T20:34:21.478Z,0.80
2018-02-14T20:36:49.711Z,1.10
2018-02-14T20:39:17.300Z,1.00
2018-02-14T20:41:45.545Z,1.00
2018-02-14T20:44:13.020Z,1.00
2018-02-14T20:46:40.504Z,1.10
2018-02-14T20:49:07.994Z,1.20
2018-02-14T20:51:36.270Z,1.20
2018-02-14T20:54:03.746Z,1.10
2018-02-14T20:56:31.869Z,1.10
2018-02-14T20:58:59.330Z,1.00
2018-02-14T21:01:27.722Z,0.90
2018-02-14T21:03:56.189Z,0.90
2018-02-14T21:06:23.699Z,1.00
2018-02-14T21:08:51.202Z,0.90
2018-02-14T21:11:18.767Z,0.90
2018-02-14T21:13:46.348Z,0.80
2018-02-14T21:16:13.854Z,0.70
2018-02-14T21:18:41.339Z,0.60
2018-02-14T21:21:09.714Z,0.70
2018-02-14T21:23:37.204Z,0.70
2018-02-14T21:26:04.700Z,0.80
2018-02-14T21:28:32.197Z,0.90
2018-02-14T21:30:59.709Z,1.00
2018-02-14T21:33:27.201Z,1.00
2018-02-14T21:35:54.753Z,0.90
2018-02-14T21:38:22.246Z,0.80
2018-02-14T21:40:49.733Z,0.70
2018-02-14T21:43:17.238Z,0.70
2018-02-14T21:45:44.719Z,0.70
2018-02-14T21:48:12.203Z,0.70
2018-02-14T21:50:39.695Z,0.60
2018-02-14T21:53:07.194Z,0.60
2018-02-14T21:55:34.680Z,0.60
2018-02-14T21:58:02.269Z,0.60
2018-02-14T22:00:30.530Z,0.70
2018-02-14T22:02:58.024Z,0.60
2018-02-14T22:05:25.573Z,0.60
2018-02-14T22:07:53.121Z,0.70
2018-02-14T22:10:21.389Z,0.70
2018-02-14T22:12:49.661Z,0.70
2018-02-14T22:15:17.926Z,0.70
2018-02-14T22:17:45.438Z,0.60
2018-02-14T22:20:12.937Z,0.70
2018-02-14T22:22:40.432Z,0.60
2018-02-14T22:25:07.985Z,0.60
2018-02-14T22:27:36.287Z,0.60
2018-02-14T22:30:03.817Z,0.60
2018-02-14T22:32:32.099Z,0.80
2018-02-14T22:34:59.744Z,0.80
2018-02-14T22:37:28.057Z,0.50
2018-02-14T22:39:55.588Z,0.50
2018-02-14T22:42:23.843Z,0.30
2018-02-14T22:44:51.332Z,0.20
2018-02-14T22:47:18.818Z,0.20
2018-02-14T22:49:46.432Z,0.30
2018-02-14T22:52:14.713Z,0.30
2018-02-14T22:54:42.212Z,0.20
2018-02-14T22:57:09.724Z,0.10
2018-02-14T22:59:38.134Z,0.00
2018-02-14T23:02:05.626Z,0.00
2018-02-14T23:04:33.885Z,0.00
2018-02-14T23:07:01.405Z,0.00
2018-02-14T23:09:29.175Z,0.10
2018-02-14T23:11:56.728Z,0.10
2018-02-14T23:14:24.212Z,0.10
2018-02-14T23:16:51.739Z,0.10
2018-02-14T23:19:19.240Z,0.20
2018-02-14T23:21:46.757Z,0.40
2018-02-14T23:24:15.013Z,0.10
2018-02-14T23:26:43.301Z,0.10
2018-02-14T23:29:11.555Z,0.00
2018-02-14T23:31:39.027Z,0.00
2018-02-14T23:34:07.284Z,0.00
2018-02-14T23:36:34.786Z,-0.10
2018-02-14T23:39:02.280Z,0.00
2018-02-14T23:41:29.780Z,-0.10
2018-02-14T23:43:58.051Z,0.00
2018-02-14T23:46:26.318Z,0.00
2018-02-14T23:48:54.615Z,0.20
2018-02-14T23:51:22.980Z,0.00
2018-02-14T23:53:51.359Z,0.00
2018-02-14T23:56:19.616Z,0.00
2018-02-14T23:58:47.133Z,-0.10
